»·PEaware :: SWA4377 KBWI-KMEM

SWA4377 :: KBWI-KMEM

FLIGHT INFORMATION

Flight Status: Arrived
Operator:
Southwest Airlines
More flights by this operator :: More flights under this callsign
Pilot: Drew Leevy (13237)
Aircraft: BOEING 737-300
(B733)
More flights by this aircraft type
Origin: KBWI Baltimore-Washington Intl
United States
Destination: KMEM Memphis Intl
United States
More flights between these airports :: More routes between these airports
Route: TERPZ6 OTTTO Q80 FAREV BWG BLUZZ1
File this flight plan on PilotEdge
Remarks: Sample flight plan
Altitude:
(Current/Filed)
36,000ft
Speed:
(Current/Filed)
115kts
Departed: 04-Jun-17 11:22 PM
Arrived: 05-Jun-17 01:23 AM
Distance/Time
Traveled:
683nm/2:01
Distance/Time
To Go:
Arrived

Flight Plot

Page will automatically refresh every two minutes.

Flight plan parsing failed; only flown route is shown


Map Options




Map Legend


Flown Route
Filed Route
Departure Airport
Arrival Airport
Navaid (VOR, NDB)
Fix

Horizontal Profiles

Position Reports

Time Latitude Longitude Heading Altitude Ground
Speed
04-Jun-17 23:05 39.178055 -76.669981 245 152ft 0kts
04-Jun-17 23:06 39.178055 -76.669981 245 152ft 0kts
04-Jun-17 23:07 39.178055 -76.669981 245 152ft 0kts
04-Jun-17 23:08 39.178055 -76.669981 245 152ft 0kts
04-Jun-17 23:09 39.178229 -76.669496 244 152ft 0kts
04-Jun-17 23:10 39.178256 -76.669421 244 152ft 0kts
04-Jun-17 23:11 39.178014 -76.669284 134 152ft 6kts
04-Jun-17 23:12 39.176648 -76.667902 148 152ft 0kts
04-Jun-17 23:13 39.175264 -76.668299 221 152ft 9kts
04-Jun-17 23:14 39.176068 -76.671611 322 152ft 15kts
04-Jun-17 23:15 39.175130 -76.676771 274 152ft 17kts
04-Jun-17 23:16 39.176581 -76.681381 330 152ft 15kts
04-Jun-17 23:17 39.175875 -76.687357 257 152ft 18kts
04-Jun-17 23:18 39.175674 -76.689235 218 152ft 0kts
04-Jun-17 23:19 39.175674 -76.689235 218 152ft 0kts
04-Jun-17 23:20 39.175674 -76.689235 218 152ft 0kts
04-Jun-17 23:21 39.175674 -76.689235 218 152ft 0kts
04-Jun-17 23:22 39.175674 -76.689235 218 152ft 0kts
04-Jun-17 23:23 39.174701 -76.688858 96 152ft 0kts
04-Jun-17 23:24 39.172385 -76.648181 93 767ft 178kts
04-Jun-17 23:25 39.170500 -76.595859 83 2066ft 203kts
04-Jun-17 23:26 39.227316 -76.584213 307 2534ft 233kts
04-Jun-17 23:27 39.244868 -76.651895 276 4629ft 249kts
04-Jun-17 23:28 39.230207 -76.754477 257 7704ft 259kts
04-Jun-17 23:29 39.215974 -76.830449 259 10156ft 270kts
04-Jun-17 23:30 39.219255 -76.944277 271 13561ft 281kts
04-Jun-17 23:31 39.220338 -77.028343 272 15944ft 289kts
04-Jun-17 23:32 39.222323 -77.132804 268 18663ft 298kts
04-Jun-17 23:33 39.201547 -77.238174 258 21127ft 310kts
04-Jun-17 23:34 39.178548 -77.346013 258 23302ft 320kts
04-Jun-17 23:35 39.154739 -77.457487 259 25343ft 328kts
04-Jun-17 23:36 39.130401 -77.570833 259 27493ft 327kts
04-Jun-17 23:37 39.107207 -77.678447 259 29476ft 321kts
04-Jun-17 23:38 39.083497 -77.787932 260 31412ft 313kts
04-Jun-17 23:39 39.060267 -77.894639 261 32961ft 308kts
04-Jun-17 23:40 39.037300 -77.999595 261 34298ft 304kts
04-Jun-17 23:41 39.014411 -78.103723 262 35370ft 302kts
04-Jun-17 23:42 38.991474 -78.207757 262 35871ft 313kts
04-Jun-17 23:43 38.966553 -78.320090 261 35863ft 341kts
04-Jun-17 23:44 38.939316 -78.442070 261 35861ft 371kts
04-Jun-17 23:45 38.909754 -78.573645 260 35881ft 394kts
04-Jun-17 23:46 38.880642 -78.701497 260 35891ft 395kts
04-Jun-17 23:47 38.849954 -78.836468 260 35906ft 395kts
04-Jun-17 23:48 38.819031 -78.971858 260 35924ft 396kts
04-Jun-17 23:49 38.788058 -79.106670 260 35924ft 396kts
04-Jun-17 23:50 38.756794 -79.241953 260 35923ft 396kts
04-Jun-17 23:51 38.725356 -79.377192 260 35923ft 396kts
04-Jun-17 23:52 38.693737 -79.512429 260 35922ft 397kts
04-Jun-17 23:53 38.662017 -79.647302 260 35951ft 397kts
04-Jun-17 23:54 38.630505 -79.780712 259 35981ft 399kts
04-Jun-17 23:55 38.598335 -79.915954 259 35976ft 398kts
04-Jun-17 23:56 38.566089 -80.050750 259 35975ft 399kts
04-Jun-17 23:57 38.533553 -80.186010 259 35978ft 399kts
04-Jun-17 23:58 38.500952 -80.320800 259 35977ft 399kts
04-Jun-17 23:59 38.468111 -80.455818 259 35941ft 400kts
05-Jun-17 00:00 38.435121 -80.590679 259 35921ft 400kts
05-Jun-17 00:01 38.402186 -80.724693 259 35926ft 401kts
05-Jun-17 00:02 38.368884 -80.859375 259 35959ft 403kts
05-Jun-17 00:03 38.335212 -80.994728 259 35920ft 401kts
05-Jun-17 00:04 38.301428 -81.129815 259 35923ft 402kts
05-Jun-17 00:05 38.267321 -81.265423 259 35923ft 402kts
05-Jun-17 00:06 38.233087 -81.400800 259 35923ft 403kts
05-Jun-17 00:07 38.198725 -81.535934 259 35924ft 403kts
05-Jun-17 00:08 38.164423 -81.670142 258 35895ft 405kts
05-Jun-17 00:09 38.129587 -81.805779 258 35925ft 404kts
05-Jun-17 00:10 38.094610 -81.941121 258 35923ft 404kts
05-Jun-17 00:11 38.059582 -82.075928 258 35948ft 404kts
05-Jun-17 00:12 38.024369 -82.210726 258 35949ft 405kts
05-Jun-17 00:13 37.988952 -82.345569 258 35913ft 404kts
05-Jun-17 00:14 37.953281 -82.480695 258 35902ft 406kts
05-Jun-17 00:15 37.917522 -82.615411 258 35896ft 406kts
05-Jun-17 00:16 37.886677 -82.730617 257 35894ft 406kts
05-Jun-17 00:17 37.850231 -82.866108 258 35898ft 407kts
05-Jun-17 00:18 37.813824 -83.001205 258 35896ft 407kts
05-Jun-17 00:19 37.777329 -83.135951 258 35953ft 408kts
05-Jun-17 00:20 37.740502 -83.271194 258 35950ft 407kts
05-Jun-17 00:21 37.703510 -83.406356 258 35950ft 407kts
05-Jun-17 00:22 37.666358 -83.541406 258 35951ft 408kts
05-Jun-17 00:23 37.633686 -83.672395 260 35920ft 407kts
05-Jun-17 00:24 37.601192 -83.808507 259 35952ft 407kts
05-Jun-17 00:25 37.568418 -83.944327 259 35950ft 407kts
05-Jun-17 00:26 37.535485 -84.080020 259 35949ft 407kts
05-Jun-17 00:27 37.502428 -84.215465 259 35951ft 408kts
05-Jun-17 00:28 37.468996 -84.351692 259 35950ft 408kts
05-Jun-17 00:29 37.435427 -84.487705 256 35951ft 412kts
05-Jun-17 00:30 37.401467 -84.624523 256 35950ft 411kts
05-Jun-17 00:31 37.368182 -84.758115 255 35952ft 411kts
05-Jun-17 00:32 37.336416 -84.884766 255 35950ft 411kts
05-Jun-17 00:33 37.304183 -85.012602 255 35950ft 411kts
05-Jun-17 00:34 37.270259 -85.146407 257 35930ft 398kts
05-Jun-17 00:35 37.236939 -85.277264 257 35930ft 402kts
05-Jun-17 00:36 37.203924 -85.406182 257 35922ft 401kts
05-Jun-17 00:37 37.169695 -85.539160 257 35924ft 402kts
05-Jun-17 00:38 37.135715 -85.670521 257 35895ft 403kts
05-Jun-17 00:39 37.101233 -85.803232 257 35924ft 402kts
05-Jun-17 00:40 37.066632 -85.935509 257 35876ft 395kts
05-Jun-17 00:41 37.032028 -86.067283 257 35907ft 404kts
05-Jun-17 00:42 36.997117 -86.199412 257 35894ft 402kts
05-Jun-17 00:43 36.962082 -86.331378 257 35897ft 402kts
05-Jun-17 00:44 36.924137 -86.462367 245 35897ft 410kts
05-Jun-17 00:45 36.867563 -86.582921 247 35897ft 409kts
05-Jun-17 00:46 36.813567 -86.705510 247 35893ft 410kts
05-Jun-17 00:47 36.759137 -86.828948 247 35942ft 410kts
05-Jun-17 00:48 36.704225 -86.952920 247 35894ft 409kts
05-Jun-17 00:49 36.649112 -87.076888 247 35897ft 410kts
05-Jun-17 00:50 36.594057 -87.200256 247 35896ft 410kts
05-Jun-17 00:51 36.539289 -87.322523 247 35896ft 410kts
05-Jun-17 00:52 36.484155 -87.445152 247 35896ft 410kts
05-Jun-17 00:53 36.428716 -87.568018 247 35773ft 412kts
05-Jun-17 00:54 36.378681 -87.678471 247 34360ft 391kts
05-Jun-17 00:55 36.326801 -87.792846 247 32853ft 378kts
05-Jun-17 00:56 36.274232 -87.904533 246 31501ft 374kts
05-Jun-17 00:57 36.223055 -88.016156 244 30117ft 374kts
05-Jun-17 00:58 36.172481 -88.126306 244 28716ft 364kts
05-Jun-17 00:59 36.123021 -88.233703 243 27327ft 358kts
05-Jun-17 01:00 36.074359 -88.338976 243 25939ft 352kts
05-Jun-17 01:01 36.026082 -88.441783 243 24784ft 341kts
05-Jun-17 01:02 35.978378 -88.544314 243 23405ft 347kts
05-Jun-17 01:03 35.930633 -88.646686 243 21617ft 345kts
05-Jun-17 01:04 35.884240 -88.745844 242 19577ft 352kts
05-Jun-17 01:05 35.835166 -88.850155 242 17497ft 354kts
05-Jun-17 01:06 35.787174 -88.952048 242 16387ft 320kts
05-Jun-17 01:07 35.745363 -89.040648 242 15254ft 290kts
05-Jun-17 01:08 35.695044 -89.116658 229 13557ft 287kts
05-Jun-17 01:09 35.640769 -89.186504 229 11911ft 280kts
05-Jun-17 01:10 35.589399 -89.255238 233 10362ft 271kts
05-Jun-17 01:11 35.541670 -89.326635 233 9388ft 275kts
05-Jun-17 01:12 35.495133 -89.397892 247 8286ft 264kts
05-Jun-17 01:13 35.461537 -89.477468 244 7299ft 261kts
05-Jun-17 01:14 35.427696 -89.555937 244 6302ft 259kts
05-Jun-17 01:15 35.394927 -89.633260 247 5405ft 254kts
05-Jun-17 01:16 35.368603 -89.711895 257 4694ft 251kts
05-Jun-17 01:17 35.350983 -89.794221 246 3990ft 251kts
05-Jun-17 01:18 35.307149 -89.861037 233 3303ft 251kts
05-Jun-17 01:19 35.264759 -89.928612 233 2867ft 238kts
05-Jun-17 01:20 35.220733 -89.977676 191 2880ft 212kts
05-Jun-17 01:21 35.170104 -89.979163 177 2738ft 164kts
05-Jun-17 01:22 35.128356 -89.977699 178 1831ft 144kts
05-Jun-17 01:23 35.089007 -89.976893 178 1048ft 141kts
05-Jun-17 01:24 35.050505 -89.976083 178 354ft 135kts
05-Jun-17 01:25 35.037981 -89.976549 268 346ft 1kts
05-Jun-17 01:26 35.039632 -89.982800 324 346ft 24kts
05-Jun-17 01:27 35.044339 -89.984366 92 346ft 0kts
05-Jun-17 01:28 35.044339 -89.984366 92 346ft 0kts

Navigation Log

Ident Type
Flight plan parsing failed, navigation log unavailable